sensor_id;sensor_type;location;lat;lon;timestamp;P1;durP1;ratioP1;P2;durP2;ratioP2
43519;SDS011;46848;51.980;5.918;2023-05-03T00:00:21;2.43;;;0.83;;
43519;SDS011;46848;51.980;5.918;2023-05-03T00:02:47;2.97;;;0.67;;
43519;SDS011;46848;51.980;5.918;2023-05-03T00:05:12;5.80;;;0.90;;
43519;SDS011;46848;51.980;5.918;2023-05-03T00:07:42;3.00;;;0.70;;
43519;SDS011;46848;51.980;5.918;2023-05-03T00:10:09;2.27;;;0.87;;
43519;SDS011;46848;51.980;5.918;2023-05-03T00:12:38;5.53;;;0.83;;
43519;SDS011;46848;51.980;5.918;2023-05-03T00:15:05;1.93;;;0.30;;
43519;SDS011;46848;51.980;5.918;2023-05-03T00:17:31;3.93;;;0.77;;
43519;SDS011;46848;51.980;5.918;2023-05-03T00:19:57;2.67;;;0.57;;
43519;SDS011;46848;51.980;5.918;2023-05-03T00:22:23;2.33;;;0.73;;
43519;SDS011;46848;51.980;5.918;2023-05-03T00:24:49;2.10;;;0.60;;
43519;SDS011;46848;51.980;5.918;2023-05-03T00:27:15;3.47;;;0.60;;
43519;SDS011;46848;51.980;5.918;2023-05-03T00:29:41;2.70;;;0.90;;
43519;SDS011;46848;51.980;5.918;2023-05-03T00:32:07;5.03;;;0.80;;
43519;SDS011;46848;51.980;5.918;2023-05-03T00:34:34;3.20;;;0.70;;
43519;SDS011;46848;51.980;5.918;2023-05-03T00:37:01;4.03;;;0.90;;
43519;SDS011;46848;51.980;5.918;2023-05-03T00:39:28;4.07;;;0.73;;
43519;SDS011;46848;51.980;5.918;2023-05-03T00:41:56;4.97;;;1.17;;
43519;SDS011;46848;51.980;5.918;2023-05-03T00:44:26;3.30;;;0.70;;
43519;SDS011;46848;51.980;5.918;2023-05-03T00:46:52;3.37;;;0.70;;
43519;SDS011;46848;51.980;5.918;2023-05-03T00:49:19;2.60;;;0.87;;
43519;SDS011;46848;51.980;5.918;2023-05-03T00:51:45;3.47;;;0.73;;
43519;SDS011;46848;51.980;5.918;2023-05-03T00:54:12;3.00;;;0.77;;
43519;SDS011;46848;51.980;5.918;2023-05-03T00:56:37;4.43;;;1.63;;
43519;SDS011;46848;51.980;5.918;2023-05-03T00:59:04;4.73;;;0.87;;
43519;SDS011;46848;51.980;5.918;2023-05-03T01:01:30;3.60;;;0.83;;
43519;SDS011;46848;51.980;5.918;2023-05-03T01:03:57;4.20;;;1.10;;
43519;SDS011;46848;51.980;5.918;2023-05-03T01:12:03;4.17;;;1.17;;
43519;SDS011;46848;51.980;5.918;2023-05-03T01:14:59;5.72;;;1.00;;
43519;SDS011;46848;51.980;5.918;2023-05-03T01:17:34;4.83;;;0.90;;
43519;SDS011;46848;51.980;5.918;2023-05-03T01:20:06;5.70;;;1.03;;
43519;SDS011;46848;51.980;5.918;2023-05-03T01:23:13;4.63;;;1.17;;
43519;SDS011;46848;51.980;5.918;2023-05-03T01:25:34;3.30;;;0.80;;
43519;SDS011;46848;51.980;5.918;2023-05-03T01:28:00;7.33;;;3.13;;
43519;SDS011;46848;51.980;5.918;2023-05-03T01:30:26;5.23;;;2.20;;
43519;SDS011;46848;51.980;5.918;2023-05-03T01:33:03;4.50;;;1.60;;
43519;SDS011;46848;51.980;5.918;2023-05-03T01:35:34;4.93;;;1.33;;
43519;SDS011;46848;51.980;5.918;2023-05-03T01:38:04;4.33;;;1.30;;
43519;SDS011;46848;51.980;5.918;2023-05-03T01:40:32;4.87;;;1.07;;
43519;SDS011;46848;51.980;5.918;2023-05-03T01:43:12;4.03;;;1.03;;
43519;SDS011;46848;51.980;5.918;2023-05-03T01:45:40;9.20;;;1.17;;
43519;SDS011;46848;51.980;5.918;2023-05-03T01:48:10;3.10;;;0.90;;
43519;SDS011;46848;51.980;5.918;2023-05-03T01:50:40;2.63;;;0.70;;
43519;SDS011;46848;51.980;5.918;2023-05-03T01:53:05;4.20;;;1.10;;
43519;SDS011;46848;51.980;5.918;2023-05-03T01:55:31;3.50;;;0.90;;
43519;SDS011;46848;51.980;5.918;2023-05-03T01:57:56;2.93;;;0.90;;
43519;SDS011;46848;51.980;5.918;2023-05-03T02:00:22;5.83;;;1.07;;
43519;SDS011;46848;51.980;5.918;2023-05-03T02:02:48;3.27;;;1.00;;
43519;SDS011;46848;51.980;5.918;2023-05-03T02:05:13;5.00;;;1.03;;
43519;SDS011;46848;51.980;5.918;2023-05-03T02:07:39;6.10;;;1.10;;
43519;SDS011;46848;51.980;5.918;2023-05-03T02:10:05;5.87;;;1.10;;
43519;SDS011;46848;51.980;5.918;2023-05-03T02:12:31;5.47;;;1.50;;
43519;SDS011;46848;51.980;5.918;2023-05-03T02:14:57;8.57;;;1.63;;
43519;SDS011;46848;51.980;5.918;2023-05-03T02:17:23;4.70;;;0.90;;
43519;SDS011;46848;51.980;5.918;2023-05-03T02:19:52;5.03;;;1.83;;
43519;SDS011;46848;51.980;5.918;2023-05-03T02:22:17;9.17;;;3.17;;
43519;SDS011;46848;51.980;5.918;2023-05-03T02:24:43;9.90;;;4.83;;
43519;SDS011;46848;51.980;5.918;2023-05-03T02:27:09;8.43;;;3.97;;
43519;SDS011;46848;51.980;5.918;2023-05-03T02:29:34;10.80;;;5.23;;
43519;SDS011;46848;51.980;5.918;2023-05-03T02:32:00;12.90;;;7.27;;
43519;SDS011;46848;51.980;5.918;2023-05-03T02:34:30;13.63;;;7.00;;
43519;SDS011;46848;51.980;5.918;2023-05-03T02:36:56;12.03;;;6.07;;
43519;SDS011;46848;51.980;5.918;2023-05-03T02:39:22;15.53;;;4.30;;
43519;SDS011;46848;51.980;5.918;2023-05-03T02:41:47;8.23;;;3.40;;
43519;SDS011;46848;51.980;5.918;2023-05-03T02:44:13;7.70;;;2.40;;
43519;SDS011;46848;51.980;5.918;2023-05-03T02:46:39;7.30;;;3.10;;
43519;SDS011;46848;51.980;5.918;2023-05-03T02:49:06;8.07;;;2.03;;
43519;SDS011;46848;51.980;5.918;2023-05-03T02:51:32;5.13;;;1.60;;
43519;SDS011;46848;51.980;5.918;2023-05-03T02:53:57;5.60;;;1.53;;
43519;SDS011;46848;51.980;5.918;2023-05-03T02:56:23;5.40;;;1.77;;
43519;SDS011;46848;51.980;5.918;2023-05-03T02:58:52;5.77;;;1.73;;
43519;SDS011;46848;51.980;5.918;2023-05-03T03:01:18;4.60;;;1.30;;
43519;SDS011;46848;51.980;5.918;2023-05-03T03:03:44;5.60;;;2.83;;
43519;SDS011;46848;51.980;5.918;2023-05-03T03:06:10;8.37;;;2.70;;
43519;SDS011;46848;51.980;5.918;2023-05-03T03:08:36;6.27;;;2.83;;
43519;SDS011;46848;51.980;5.918;2023-05-03T03:11:02;4.50;;;1.97;;
43519;SDS011;46848;51.980;5.918;2023-05-03T03:13:28;4.57;;;1.53;;
43519;SDS011;46848;51.980;5.918;2023-05-03T03:15:53;3.90;;;1.50;;
43519;SDS011;46848;51.980;5.918;2023-05-03T03:18:19;4.80;;;1.30;;
43519;SDS011;46848;51.980;5.918;2023-05-03T03:20:45;7.40;;;2.80;;
43519;SDS011;46848;51.980;5.918;2023-05-03T03:23:10;6.57;;;2.40;;
43519;SDS011;46848;51.980;5.918;2023-05-03T03:25:36;3.73;;;1.60;;
43519;SDS011;46848;51.980;5.918;2023-05-03T03:28:02;9.10;;;1.90;;
43519;SDS011;46848;51.980;5.918;2023-05-03T03:30:29;4.73;;;1.20;;
43519;SDS011;46848;51.980;5.918;2023-05-03T03:32:54;5.13;;;1.20;;
43519;SDS011;46848;51.980;5.918;2023-05-03T03:35:20;3.30;;;1.00;;
43519;SDS011;46848;51.980;5.918;2023-05-03T03:37:45;5.40;;;1.30;;
43519;SDS011;46848;51.980;5.918;2023-05-03T03:40:11;4.63;;;1.10;;
43519;SDS011;46848;51.980;5.918;2023-05-03T03:42:38;2.70;;;1.03;;
43519;SDS011;46848;51.980;5.918;2023-05-03T03:45:04;5.33;;;1.10;;
43519;SDS011;46848;51.980;5.918;2023-05-03T03:47:30;4.57;;;1.00;;
43519;SDS011;46848;51.980;5.918;2023-05-03T03:49:57;4.10;;;1.10;;
43519;SDS011;46848;51.980;5.918;2023-05-03T03:52:24;6.43;;;1.20;;
43519;SDS011;46848;51.980;5.918;2023-05-03T03:54:49;5.77;;;1.40;;
43519;SDS011;46848;51.980;5.918;2023-05-03T03:57:16;5.03;;;1.00;;
43519;SDS011;46848;51.980;5.918;2023-05-03T03:59:41;4.03;;;1.30;;
43519;SDS011;46848;51.980;5.918;2023-05-03T04:02:07;4.17;;;1.03;;
43519;SDS011;46848;51.980;5.918;2023-05-03T04:04:32;3.30;;;1.00;;
43519;SDS011;46848;51.980;5.918;2023-05-03T04:06:58;3.67;;;1.17;;
43519;SDS011;46848;51.980;5.918;2023-05-03T04:09:24;5.20;;;1.20;;
43519;SDS011;46848;51.980;5.918;2023-05-03T04:11:49;3.57;;;1.03;;
43519;SDS011;46848;51.980;5.918;2023-05-03T04:14:15;3.07;;;1.07;;
43519;SDS011;46848;51.980;5.918;2023-05-03T04:16:41;3.70;;;0.90;;
43519;SDS011;46848;51.980;5.918;2023-05-03T04:19:06;3.13;;;1.53;;
43519;SDS011;46848;51.980;5.918;2023-05-03T04:21:32;6.00;;;1.33;;
43519;SDS011;46848;51.980;5.918;2023-05-03T04:23:57;6.03;;;1.10;;
43519;SDS011;46848;51.980;5.918;2023-05-03T04:26:24;6.00;;;1.20;;
43519;SDS011;46848;51.980;5.918;2023-05-03T04:28:50;3.77;;;1.00;;
43519;SDS011;46848;51.980;5.918;2023-05-03T04:31:15;5.20;;;1.20;;
43519;SDS011;46848;51.980;5.918;2023-05-03T04:33:44;3.37;;;1.10;;
43519;SDS011;46848;51.980;5.918;2023-05-03T04:36:10;4.57;;;1.37;;
43519;SDS011;46848;51.980;5.918;2023-05-03T04:38:40;4.00;;;1.03;;
43519;SDS011;46848;51.980;5.918;2023-05-03T04:41:06;5.50;;;1.43;;
43519;SDS011;46848;51.980;5.918;2023-05-03T04:43:32;4.87;;;1.23;;
43519;SDS011;46848;51.980;5.918;2023-05-03T04:45:58;5.20;;;1.27;;
43519;SDS011;46848;51.980;5.918;2023-05-03T04:48:24;7.63;;;1.23;;
43519;SDS011;46848;51.980;5.918;2023-05-03T04:50:50;7.50;;;1.37;;
43519;SDS011;46848;51.980;5.918;2023-05-03T04:53:16;6.83;;;1.50;;
43519;SDS011;46848;51.980;5.918;2023-05-03T04:55:42;2.93;;;1.30;;
43519;SDS011;46848;51.980;5.918;2023-05-03T04:58:08;4.47;;;1.40;;
43519;SDS011;46848;51.980;5.918;2023-05-03T05:00:33;5.07;;;0.90;;
43519;SDS011;46848;51.980;5.918;2023-05-03T05:03:00;5.67;;;1.00;;
43519;SDS011;46848;51.980;5.918;2023-05-03T05:05:25;2.70;;;1.03;;
43519;SDS011;46848;51.980;5.918;2023-05-03T05:07:51;4.23;;;1.20;;
43519;SDS011;46848;51.980;5.918;2023-05-03T05:10:17;4.50;;;1.80;;
43519;SDS011;46848;51.980;5.918;2023-05-03T05:12:42;5.20;;;1.20;;
43519;SDS011;46848;51.980;5.918;2023-05-03T05:15:08;3.93;;;1.30;;
43519;SDS011;46848;51.980;5.918;2023-05-03T05:17:34;4.90;;;1.10;;
43519;SDS011;46848;51.980;5.918;2023-05-03T05:20:00;5.77;;;1.20;;
43519;SDS011;46848;51.980;5.918;2023-05-03T05:22:26;6.33;;;1.17;;
43519;SDS011;46848;51.980;5.918;2023-05-03T05:24:51;7.27;;;1.30;;
43519;SDS011;46848;51.980;5.918;2023-05-03T05:27:17;4.83;;;1.20;;
43519;SDS011;46848;51.980;5.918;2023-05-03T05:29:44;3.07;;;1.10;;
43519;SDS011;46848;51.980;5.918;2023-05-03T05:32:12;4.10;;;1.53;;
43519;SDS011;46848;51.980;5.918;2023-05-03T05:34:38;2.73;;;0.80;;
43519;SDS011;46848;51.980;5.918;2023-05-03T05:37:05;2.07;;;0.90;;
43519;SDS011;46848;51.980;5.918;2023-05-03T05:39:31;6.80;;;0.90;;
43519;SDS011;46848;51.980;5.918;2023-05-03T05:41:57;3.00;;;1.30;;
43519;SDS011;46848;51.980;5.918;2023-05-03T05:44:26;3.90;;;1.33;;
43519;SDS011;46848;51.980;5.918;2023-05-03T05:46:54;3.43;;;1.00;;
43519;SDS011;46848;51.980;5.918;2023-05-03T05:49:24;3.50;;;1.40;;
43519;SDS011;46848;51.980;5.918;2023-05-03T05:51:54;3.53;;;1.00;;
43519;SDS011;46848;51.980;5.918;2023-05-03T05:54:20;3.73;;;1.30;;
43519;SDS011;46848;51.980;5.918;2023-05-03T05:56:46;6.33;;;0.80;;
43519;SDS011;46848;51.980;5.918;2023-05-03T05:59:11;5.47;;;1.77;;
43519;SDS011;46848;51.980;5.918;2023-05-03T06:01:40;2.70;;;1.03;;
43519;SDS011;46848;51.980;5.918;2023-05-03T06:04:08;4.23;;;0.90;;
43519;SDS011;46848;51.980;5.918;2023-05-03T06:06:35;3.87;;;1.00;;
43519;SDS011;46848;51.980;5.918;2023-05-03T06:09:01;2.23;;;0.77;;
43519;SDS011;46848;51.980;5.918;2023-05-03T06:11:27;3.73;;;1.00;;
43519;SDS011;46848;51.980;5.918;2023-05-03T06:13:53;3.80;;;0.80;;
43519;SDS011;46848;51.980;5.918;2023-05-03T06:16:21;3.87;;;0.67;;
43519;SDS011;46848;51.980;5.918;2023-05-03T06:18:46;4.28;;;1.08;;
43519;SDS011;46848;51.980;5.918;2023-05-03T06:21:12;3.78;;;0.82;;
43519;SDS011;46848;51.980;5.918;2023-05-03T06:23:37;5.25;;;0.90;;
43519;SDS011;46848;51.980;5.918;2023-05-03T06:26:04;2.67;;;0.90;;
43519;SDS011;46848;51.980;5.918;2023-05-03T06:28:30;3.25;;;1.15;;
43519;SDS011;46848;51.980;5.918;2023-05-03T06:30:56;4.13;;;1.15;;
43519;SDS011;46848;51.980;5.918;2023-05-03T06:33:21;4.18;;;1.20;;
43519;SDS011;46848;51.980;5.918;2023-05-03T06:35:47;4.03;;;1.23;;
43519;SDS011;46848;51.980;5.918;2023-05-03T06:38:14;5.82;;;0.85;;
43519;SDS011;46848;51.980;5.918;2023-05-03T06:40:40;3.00;;;0.55;;
43519;SDS011;46848;51.980;5.918;2023-05-03T06:43:06;6.10;;;1.45;;
43519;SDS011;46848;51.980;5.918;2023-05-03T06:45:32;3.72;;;0.98;;
43519;SDS011;46848;51.980;5.918;2023-05-03T06:47:57;4.80;;;0.85;;
43519;SDS011;46848;51.980;5.918;2023-05-03T06:50:23;5.57;;;2.25;;
43519;SDS011;46848;51.980;5.918;2023-05-03T06:52:49;3.15;;;1.05;;
43519;SDS011;46848;51.980;5.918;2023-05-03T06:55:16;4.25;;;1.00;;
43519;SDS011;46848;51.980;5.918;2023-05-03T06:57:42;2.97;;;0.90;;
43519;SDS011;46848;51.980;5.918;2023-05-03T07:00:08;4.50;;;1.20;;
43519;SDS011;46848;51.980;5.918;2023-05-03T07:02:35;3.05;;;0.88;;
43519;SDS011;46848;51.980;5.918;2023-05-03T07:05:02;4.40;;;0.95;;
43519;SDS011;46848;51.980;5.918;2023-05-03T07:07:28;4.50;;;0.88;;
43519;SDS011;46848;51.980;5.918;2023-05-03T07:09:54;5.15;;;1.20;;
43519;SDS011;46848;51.980;5.918;2023-05-03T07:12:20;4.85;;;0.80;;
43519;SDS011;46848;51.980;5.918;2023-05-03T07:14:51;3.45;;;0.90;;
43519;SDS011;46848;51.980;5.918;2023-05-03T07:17:19;2.95;;;1.05;;
43519;SDS011;46848;51.980;5.918;2023-05-03T07:19:48;3.50;;;1.17;;
43519;SDS011;46848;51.980;5.918;2023-05-03T07:22:14;4.88;;;1.33;;
43519;SDS011;46848;51.980;5.918;2023-05-03T07:24:40;3.65;;;0.73;;
43519;SDS011;46848;51.980;5.918;2023-05-03T07:27:07;5.50;;;1.05;;
43519;SDS011;46848;51.980;5.918;2023-05-03T07:29:33;3.75;;;1.10;;
43519;SDS011;46848;51.980;5.918;2023-05-03T07:32:00;3.78;;;0.90;;
43519;SDS011;46848;51.980;5.918;2023-05-03T07:34:27;4.45;;;1.23;;
43519;SDS011;46848;51.980;5.918;2023-05-03T07:36:53;3.17;;;1.30;;
43519;SDS011;46848;51.980;5.918;2023-05-03T07:39:19;5.13;;;1.15;;
43519;SDS011;46848;51.980;5.918;2023-05-03T07:41:45;4.75;;;1.10;;
43519;SDS011;46848;51.980;5.918;2023-05-03T07:44:10;4.78;;;1.20;;
43519;SDS011;46848;51.980;5.918;2023-05-03T07:46:36;7.00;;;1.63;;
43519;SDS011;46848;51.980;5.918;2023-05-03T07:49:03;4.72;;;1.17;;
43519;SDS011;46848;51.980;5.918;2023-05-03T07:51:29;3.78;;;1.10;;
43519;SDS011;46848;51.980;5.918;2023-05-03T07:53:59;7.60;;;1.20;;
43519;SDS011;46848;51.980;5.918;2023-05-03T07:56:26;6.72;;;1.10;;
43519;SDS011;46848;51.980;5.918;2023-05-03T07:58:52;3.25;;;0.85;;
43519;SDS011;46848;51.980;5.918;2023-05-03T08:01:18;3.42;;;1.02;;
43519;SDS011;46848;51.980;5.918;2023-05-03T08:03:45;6.40;;;1.23;;
43519;SDS011;46848;51.980;5.918;2023-05-03T08:06:14;2.95;;;0.98;;
43519;SDS011;46848;51.980;5.918;2023-05-03T08:08:41;2.53;;;0.80;;
43519;SDS011;46848;51.980;5.918;2023-05-03T08:11:07;3.70;;;0.90;;
43519;SDS011;46848;51.980;5.918;2023-05-03T08:13:33;3.58;;;1.00;;
43519;SDS011;46848;51.980;5.918;2023-05-03T08:15:59;3.53;;;1.00;;
43519;SDS011;46848;51.980;5.918;2023-05-03T08:18:25;5.07;;;1.55;;
43519;SDS011;46848;51.980;5.918;2023-05-03T08:20:51;3.75;;;0.98;;
43519;SDS011;46848;51.980;5.918;2023-05-03T08:23:17;5.28;;;0.90;;
43519;SDS011;46848;51.980;5.918;2023-05-03T08:25:43;4.05;;;0.90;;
43519;SDS011;46848;51.980;5.918;2023-05-03T08:28:12;6.22;;;1.13;;
43519;SDS011;46848;51.980;5.918;2023-05-03T08:30:38;8.73;;;1.58;;
43519;SDS011;46848;51.980;5.918;2023-05-03T08:33:05;5.28;;;0.88;;
43519;SDS011;46848;51.980;5.918;2023-05-03T08:35:33;4.75;;;1.00;;
43519;SDS011;46848;51.980;5.918;2023-05-03T08:37:59;3.97;;;1.05;;
43519;SDS011;46848;51.980;5.918;2023-05-03T08:40:25;2.83;;;0.95;;
43519;SDS011;46848;51.980;5.918;2023-05-03T08:42:52;3.60;;;0.90;;
43519;SDS011;46848;51.980;5.918;2023-05-03T08:45:20;3.47;;;0.88;;
43519;SDS011;46848;51.980;5.918;2023-05-03T08:47:52;3.03;;;0.80;;
43519;SDS011;46848;51.980;5.918;2023-05-03T08:50:19;6.20;;;0.98;;
43519;SDS011;46848;51.980;5.918;2023-05-03T08:52:45;2.08;;;0.65;;
43519;SDS011;46848;51.980;5.918;2023-05-03T08:55:11;3.60;;;0.80;;
43519;SDS011;46848;51.980;5.918;2023-05-03T08:57:37;3.10;;;0.60;;
43519;SDS011;46848;51.980;5.918;2023-05-03T09:00:04;10.32;;;0.82;;
43519;SDS011;46848;51.980;5.918;2023-05-03T09:02:34;5.15;;;1.08;;
43519;SDS011;46848;51.980;5.918;2023-05-03T09:05:03;4.45;;;0.95;;
43519;SDS011;46848;51.980;5.918;2023-05-03T09:08:03;4.47;;;1.05;;
43519;SDS011;46848;51.980;5.918;2023-05-03T09:10:39;5.55;;;1.27;;
43519;SDS011;46848;51.980;5.918;2023-05-03T09:13:06;5.75;;;0.95;;
43519;SDS011;46848;51.980;5.918;2023-05-03T09:15:33;3.58;;;1.13;;
43519;SDS011;46848;51.980;5.918;2023-05-03T09:18:16;4.00;;;1.25;;
43519;SDS011;46848;51.980;5.918;2023-05-03T09:20:46;3.17;;;0.80;;
43519;SDS011;46848;51.980;5.918;2023-05-03T09:25:51;3.38;;;0.93;;
43519;SDS011;46848;51.980;5.918;2023-05-03T09:28:17;5.43;;;1.15;;
43519;SDS011;46848;51.980;5.918;2023-05-03T09:30:44;5.15;;;0.90;;
43519;SDS011;46848;51.980;5.918;2023-05-03T09:33:10;4.03;;;1.10;;
43519;SDS011;46848;51.980;5.918;2023-05-03T09:35:37;5.07;;;1.33;;
43519;SDS011;46848;51.980;5.918;2023-05-03T09:38:03;4.25;;;1.00;;
43519;SDS011;46848;51.980;5.918;2023-05-03T09:40:29;5.97;;;1.10;;
43519;SDS011;46848;51.980;5.918;2023-05-03T09:43:05;4.13;;;1.17;;
43519;SDS011;46848;51.980;5.918;2023-05-03T09:45:34;3.72;;;1.05;;
43519;SDS011;46848;51.980;5.918;2023-05-03T09:48:01;4.32;;;1.25;;
43519;SDS011;46848;51.980;5.918;2023-05-03T09:50:29;4.05;;;1.00;;
43519;SDS011;46848;51.980;5.918;2023-05-03T09:52:56;3.80;;;1.15;;
43519;SDS011;46848;51.980;5.918;2023-05-03T09:55:38;3.63;;;1.13;;
43519;SDS011;46848;51.980;5.918;2023-05-03T09:58:05;2.67;;;0.70;;
43519;SDS011;46848;51.980;5.918;2023-05-03T10:00:35;5.03;;;1.17;;
43519;SDS011;46848;51.980;5.918;2023-05-03T10:03:06;3.13;;;0.93;;
43519;SDS011;46848;51.980;5.918;2023-05-03T10:05:48;3.92;;;1.05;;
43519;SDS011;46848;51.980;5.918;2023-05-03T10:08:32;5.90;;;1.10;;
43519;SDS011;46848;51.980;5.918;2023-05-03T10:11:08;3.67;;;1.02;;
43519;SDS011;46848;51.980;5.918;2023-05-03T10:13:37;4.20;;;1.00;;
43519;SDS011;46848;51.980;5.918;2023-05-03T10:16:11;6.05;;;1.02;;
43519;SDS011;46848;51.980;5.918;2023-05-03T10:18:46;3.75;;;0.80;;
43519;SDS011;46848;51.980;5.918;2023-05-03T10:21:23;4.75;;;1.00;;
43519;SDS011;46848;51.980;5.918;2023-05-03T10:24:22;2.80;;;0.90;;
43519;SDS011;46848;51.980;5.918;2023-05-03T10:26:54;5.15;;;1.23;;
43519;SDS011;46848;51.980;5.918;2023-05-03T10:32:29;3.90;;;0.98;;
43519;SDS011;46848;51.980;5.918;2023-05-03T10:34:58;2.28;;;0.77;;
43519;SDS011;46848;51.980;5.918;2023-05-03T10:37:26;3.47;;;1.00;;
43519;SDS011;46848;51.980;5.918;2023-05-03T10:39:55;4.15;;;1.00;;
43519;SDS011;46848;51.980;5.918;2023-05-03T10:42:29;3.55;;;0.90;;
43519;SDS011;46848;51.980;5.918;2023-05-03T10:44:55;3.78;;;1.35;;
43519;SDS011;46848;51.980;5.918;2023-05-03T10:47:22;3.13;;;1.17;;
43519;SDS011;46848;51.980;5.918;2023-05-03T10:55:12;4.43;;;0.82;;
43519;SDS011;46848;51.980;5.918;2023-05-03T10:57:45;4.63;;;1.20;;
43519;SDS011;46848;51.980;5.918;2023-05-03T11:00:13;3.03;;;0.90;;
43519;SDS011;46848;51.980;5.918;2023-05-03T11:05:40;4.65;;;1.17;;
43519;SDS011;46848;51.980;5.918;2023-05-03T11:08:13;3.75;;;1.00;;
43519;SDS011;46848;51.980;5.918;2023-05-03T11:10:44;3.58;;;1.00;;
43519;SDS011;46848;51.980;5.918;2023-05-03T11:13:11;4.28;;;1.20;;
43519;SDS011;46848;51.980;5.918;2023-05-03T11:15:38;6.85;;;1.02;;
43519;SDS011;46848;51.980;5.918;2023-05-03T11:18:08;2.88;;;0.60;;
43519;SDS011;46848;51.980;5.918;2023-05-03T11:20:37;3.67;;;1.20;;
43519;SDS011;46848;51.980;5.918;2023-05-03T11:23:04;3.60;;;1.27;;
43519;SDS011;46848;51.980;5.918;2023-05-03T11:25:32;5.18;;;1.33;;
43519;SDS011;46848;51.980;5.918;2023-05-03T11:28:01;5.95;;;1.67;;
43519;SDS011;46848;51.980;5.918;2023-05-03T11:30:28;4.20;;;1.00;;
43519;SDS011;46848;51.980;5.918;2023-05-03T11:32:56;5.60;;;1.30;;
43519;SDS011;46848;51.980;5.918;2023-05-03T11:35:27;3.00;;;0.85;;
43519;SDS011;46848;51.980;5.918;2023-05-03T11:37:54;2.97;;;1.05;;
43519;SDS011;46848;51.980;5.918;2023-05-03T11:40:23;4.55;;;1.02;;
43519;SDS011;46848;51.980;5.918;2023-05-03T11:42:59;3.90;;;1.00;;
43519;SDS011;46848;51.980;5.918;2023-05-03T11:45:30;6.15;;;1.52;;
43519;SDS011;46848;51.980;5.918;2023-05-03T11:48:04;4.85;;;1.50;;
43519;SDS011;46848;51.980;5.918;2023-05-03T11:53:20;4.95;;;1.23;;
43519;SDS011;46848;51.980;5.918;2023-05-03T11:55:52;6.30;;;1.33;;
43519;SDS011;46848;51.980;5.918;2023-05-03T11:58:25;3.13;;;1.00;;
43519;SDS011;46848;51.980;5.918;2023-05-03T12:03:24;3.30;;;1.00;;
43519;SDS011;46848;51.980;5.918;2023-05-03T12:05:58;4.72;;;1.20;;
43519;SDS011;46848;51.980;5.918;2023-05-03T12:08:28;2.78;;;1.25;;
43519;SDS011;46848;51.980;5.918;2023-05-03T12:10:57;3.78;;;1.13;;
43519;SDS011;46848;51.980;5.918;2023-05-03T12:13:32;3.88;;;1.20;;
43519;SDS011;46848;51.980;5.918;2023-05-03T12:16:02;2.80;;;1.08;;
43519;SDS011;46848;51.980;5.918;2023-05-03T12:21:18;2.53;;;1.10;;
43519;SDS011;46848;51.980;5.918;2023-05-03T12:23:50;4.65;;;1.30;;
43519;SDS011;46848;51.980;5.918;2023-05-03T12:26:18;4.68;;;1.35;;
43519;SDS011;46848;51.980;5.918;2023-05-03T12:28:47;3.15;;;1.10;;
43519;SDS011;46848;51.980;5.918;2023-05-03T12:31:13;3.78;;;1.20;;
43519;SDS011;46848;51.980;5.918;2023-05-03T12:33:47;2.72;;;1.08;;
43519;SDS011;46848;51.980;5.918;2023-05-03T12:36:12;1.92;;;0.85;;
43519;SDS011;46848;51.980;5.918;2023-05-03T12:38:39;3.42;;;1.00;;
43519;SDS011;46848;51.980;5.918;2023-05-03T12:41:09;3.17;;;1.05;;
43519;SDS011;46848;51.980;5.918;2023-05-03T12:43:37;3.40;;;0.98;;
43519;SDS011;46848;51.980;5.918;2023-05-03T12:46:03;5.10;;;1.38;;
43519;SDS011;46848;51.980;5.918;2023-05-03T12:48:37;4.38;;;1.45;;
43519;SDS011;46848;51.980;5.918;2023-05-03T12:51:02;2.75;;;1.08;;
43519;SDS011;46848;51.980;5.918;2023-05-03T12:56:16;6.22;;;1.40;;
43519;SDS011;46848;51.980;5.918;2023-05-03T12:58:43;3.58;;;1.20;;
43519;SDS011;46848;51.980;5.918;2023-05-03T13:01:13;5.50;;;1.17;;
43519;SDS011;46848;51.980;5.918;2023-05-03T13:03:41;2.95;;;1.55;;
43519;SDS011;46848;51.980;5.918;2023-05-03T13:06:07;3.45;;;1.10;;
43519;SDS011;46848;51.980;5.918;2023-05-03T13:08:33;3.33;;;1.17;;
43519;SDS011;46848;51.980;5.918;2023-05-03T13:11:00;2.63;;;0.88;;
43519;SDS011;46848;51.980;5.918;2023-05-03T13:13:28;3.17;;;1.10;;
43519;SDS011;46848;51.980;5.918;2023-05-03T13:15:53;3.78;;;1.20;;
43519;SDS011;46848;51.980;5.918;2023-05-03T13:18:23;5.68;;;1.33;;
43519;SDS011;46848;51.980;5.918;2023-05-03T13:20:49;2.88;;;1.17;;
43519;SDS011;46848;51.980;5.918;2023-05-03T13:23:15;2.85;;;1.08;;
43519;SDS011;46848;51.980;5.918;2023-05-03T13:25:42;4.32;;;1.30;;
43519;SDS011;46848;51.980;5.918;2023-05-03T13:28:08;3.75;;;1.40;;
43519;SDS011;46848;51.980;5.918;2023-05-03T13:30:34;5.80;;;1.70;;
43519;SDS011;46848;51.980;5.918;2023-05-03T13:33:01;4.45;;;1.35;;
43519;SDS011;46848;51.980;5.918;2023-05-03T13:35:33;6.85;;;2.45;;
43519;SDS011;46848;51.980;5.918;2023-05-03T13:38:01;3.85;;;1.88;;
43519;SDS011;46848;51.980;5.918;2023-05-03T13:40:31;5.88;;;1.60;;
43519;SDS011;46848;51.980;5.918;2023-05-03T13:42:58;5.43;;;1.92;;
43519;SDS011;46848;51.980;5.918;2023-05-03T13:45:27;3.65;;;1.48;;
43519;SDS011;46848;51.980;5.918;2023-05-03T13:47:56;3.47;;;1.58;;
43519;SDS011;46848;51.980;5.918;2023-05-03T13:50:21;6.10;;;1.85;;
43519;SDS011;46848;51.980;5.918;2023-05-03T13:52:47;6.78;;;1.58;;
43519;SDS011;46848;51.980;5.918;2023-05-03T13:55:12;4.30;;;1.60;;
43519;SDS011;46848;51.980;5.918;2023-05-03T13:57:39;4.75;;;1.42;;
43519;SDS011;46848;51.980;5.918;2023-05-03T14:00:06;3.88;;;1.58;;
43519;SDS011;46848;51.980;5.918;2023-05-03T14:02:33;3.35;;;1.50;;
43519;SDS011;46848;51.980;5.918;2023-05-03T14:04:59;4.20;;;1.60;;
43519;SDS011;46848;51.980;5.918;2023-05-03T14:07:25;3.42;;;1.30;;
43519;SDS011;46848;51.980;5.918;2023-05-03T14:09:50;6.10;;;1.95;;
43519;SDS011;46848;51.980;5.918;2023-05-03T14:12:18;6.22;;;2.00;;
43519;SDS011;46848;51.980;5.918;2023-05-03T14:14:44;3.45;;;1.58;;
43519;SDS011;46848;51.980;5.918;2023-05-03T14:17:10;4.13;;;1.85;;
43519;SDS011;46848;51.980;5.918;2023-05-03T14:19:36;3.58;;;1.42;;
43519;SDS011;46848;51.980;5.918;2023-05-03T14:22:01;10.70;;;1.70;;
43519;SDS011;46848;51.980;5.918;2023-05-03T14:24:29;5.22;;;1.30;;
43519;SDS011;46848;51.980;5.918;2023-05-03T14:26:59;5.35;;;1.70;;
43519;SDS011;46848;51.980;5.918;2023-05-03T14:29:26;4.38;;;1.70;;
43519;SDS011;46848;51.980;5.918;2023-05-03T14:31:52;5.25;;;1.30;;
43519;SDS011;46848;51.980;5.918;2023-05-03T14:34:18;7.20;;;1.63;;
43519;SDS011;46848;51.980;5.918;2023-05-03T14:36:45;2.42;;;1.17;;
43519;SDS011;46848;51.980;5.918;2023-05-03T14:39:11;3.67;;;1.50;;
43519;SDS011;46848;51.980;5.918;2023-05-03T14:41:38;5.25;;;2.10;;
43519;SDS011;46848;51.980;5.918;2023-05-03T14:44:05;4.07;;;1.60;;
43519;SDS011;46848;51.980;5.918;2023-05-03T14:46:37;5.65;;;1.50;;
43519;SDS011;46848;51.980;5.918;2023-05-03T14:49:03;7.28;;;2.00;;
43519;SDS011;46848;51.980;5.918;2023-05-03T14:51:29;8.07;;;2.03;;
43519;SDS011;46848;51.980;5.918;2023-05-03T14:53:56;4.03;;;1.42;;
43519;SDS011;46848;51.980;5.918;2023-05-03T14:56:22;3.65;;;1.52;;
43519;SDS011;46848;51.980;5.918;2023-05-03T14:58:48;5.20;;;1.73;;
43519;SDS011;46848;51.980;5.918;2023-05-03T15:01:23;3.83;;;1.50;;
43519;SDS011;46848;51.980;5.918;2023-05-03T15:03:50;3.90;;;1.70;;
43519;SDS011;46848;51.980;5.918;2023-05-03T15:06:24;4.07;;;1.55;;
43519;SDS011;46848;51.980;5.918;2023-05-03T15:08:52;2.60;;;1.30;;
43519;SDS011;46848;51.980;5.918;2023-05-03T15:11:19;3.40;;;1.50;;
43519;SDS011;46848;51.980;5.918;2023-05-03T15:13:46;5.13;;;1.73;;
43519;SDS011;46848;51.980;5.918;2023-05-03T15:16:17;3.42;;;1.50;;
43519;SDS011;46848;51.980;5.918;2023-05-03T15:18:42;4.85;;;1.98;;
43519;SDS011;46848;51.980;5.918;2023-05-03T15:21:13;4.25;;;1.85;;